sensor_id;sensor_type;location;lat;lon;timestamp;temperature;humidity
70271;SHT31;57680;54.292;18.598;2023-01-16T00:01:13;3.43;83.40
70271;SHT31;57680;54.292;18.598;2023-01-16T00:03:39;3.44;83.39
70271;SHT31;57680;54.292;18.598;2023-01-16T00:06:05;3.42;83.32
70271;SHT31;57680;54.292;18.598;2023-01-16T00:08:30;3.39;83.52
70271;SHT31;57680;54.292;18.598;2023-01-16T00:10:56;3.47;83.21
70271;SHT31;57680;54.292;18.598;2023-01-16T00:13:22;3.43;83.69
70271;SHT31;57680;54.292;18.598;2023-01-16T00:15:49;3.36;83.72
70271;SHT31;57680;54.292;18.598;2023-01-16T00:18:15;3.36;83.86
70271;SHT31;57680;54.292;18.598;2023-01-16T00:20:40;3.37;83.82
70271;SHT31;57680;54.292;18.598;2023-01-16T00:23:06;3.46;83.58
70271;SHT31;57680;54.292;18.598;2023-01-16T00:25:31;3.39;83.68
70271;SHT31;57680;54.292;18.598;2023-01-16T00:27:57;3.40;83.74
70271;SHT31;57680;54.292;18.598;2023-01-16T00:30:22;3.44;83.58
70271;SHT31;57680;54.292;18.598;2023-01-16T00:32:49;3.44;83.66
70271;SHT31;57680;54.292;18.598;2023-01-16T00:35:15;3.46;83.40
70271;SHT31;57680;54.292;18.598;2023-01-16T00:37:40;3.44;83.27
70271;SHT31;57680;54.292;18.598;2023-01-16T00:40:06;3.43;83.54
70271;SHT31;57680;54.292;18.598;2023-01-16T00:42:31;3.39;83.67
70271;SHT31;57680;54.292;18.598;2023-01-16T00:44:57;3.33;83.69
70271;SHT31;57680;54.292;18.598;2023-01-16T00:47:22;3.32;84.00
70271;SHT31;57680;54.292;18.598;2023-01-16T00:49:48;3.24;83.94
70271;SHT31;57680;54.292;18.598;2023-01-16T00:52:13;3.29;83.95
70271;SHT31;57680;54.292;18.598;2023-01-16T00:54:38;3.29;83.94
70271;SHT31;57680;54.292;18.598;2023-01-16T00:57:04;3.23;84.23
70271;SHT31;57680;54.292;18.598;2023-01-16T00:59:29;3.29;84.09
70271;SHT31;57680;54.292;18.598;2023-01-16T01:01:55;3.29;84.27
70271;SHT31;57680;54.292;18.598;2023-01-16T01:04:20;3.32;83.77
70271;SHT31;57680;54.292;18.598;2023-01-16T01:06:45;3.19;84.11
70271;SHT31;57680;54.292;18.598;2023-01-16T01:09:11;3.15;84.29
70271;SHT31;57680;54.292;18.598;2023-01-16T01:11:36;3.11;84.33
70271;SHT31;57680;54.292;18.598;2023-01-16T01:14:02;3.05;84.81
70271;SHT31;57680;54.292;18.598;2023-01-16T01:16:27;3.03;84.94
70271;SHT31;57680;54.292;18.598;2023-01-16T01:18:53;2.99;85.05
70271;SHT31;57680;54.292;18.598;2023-01-16T01:21:18;2.96;85.53
70271;SHT31;57680;54.292;18.598;2023-01-16T01:23:44;2.96;85.58
70271;SHT31;57680;54.292;18.598;2023-01-16T01:26:14;2.88;85.59
70271;SHT31;57680;54.292;18.598;2023-01-16T01:28:40;2.87;85.78
70271;SHT31;57680;54.292;18.598;2023-01-16T01:31:07;2.92;85.79
70271;SHT31;57680;54.292;18.598;2023-01-16T01:33:33;2.89;85.79
70271;SHT31;57680;54.292;18.598;2023-01-16T01:35:59;2.95;85.65
70271;SHT31;57680;54.292;18.598;2023-01-16T01:38:24;2.88;85.67
70271;SHT31;57680;54.292;18.598;2023-01-16T01:40:50;2.84;85.92
70271;SHT31;57680;54.292;18.598;2023-01-16T01:43:18;2.87;85.76
70271;SHT31;57680;54.292;18.598;2023-01-16T01:45:53;2.82;86.20
70271;SHT31;57680;54.292;18.598;2023-01-16T01:48:24;2.80;86.06
70271;SHT31;57680;54.292;18.598;2023-01-16T01:51:14;2.82;86.18
70271;SHT31;57680;54.292;18.598;2023-01-16T01:56:30;2.72;86.12
70271;SHT31;57680;54.292;18.598;2023-01-16T01:59:02;2.77;86.30
70271;SHT31;57680;54.292;18.598;2023-01-16T02:01:30;2.74;86.29
70271;SHT31;57680;54.292;18.598;2023-01-16T02:04:02;2.77;86.22
70271;SHT31;57680;54.292;18.598;2023-01-16T02:06:34;2.74;86.32
70271;SHT31;57680;54.292;18.598;2023-01-16T02:09:02;2.77;86.43
70271;SHT31;57680;54.292;18.598;2023-01-16T02:11:40;2.71;86.47
70271;SHT31;57680;54.292;18.598;2023-01-16T02:14:09;2.65;86.56
70271;SHT31;57680;54.292;18.598;2023-01-16T02:16:36;2.68;86.53
70271;SHT31;57680;54.292;18.598;2023-01-16T02:31:09;2.74;85.94
70271;SHT31;57680;54.292;18.598;2023-01-16T02:33:40;2.68;86.14
70271;SHT31;57680;54.292;18.598;2023-01-16T02:41:33;2.62;86.33
70271;SHT31;57680;54.292;18.598;2023-01-16T02:44:20;2.64;86.36
70271;SHT31;57680;54.292;18.598;2023-01-16T02:49:21;2.62;86.45
70271;SHT31;57680;54.292;18.598;2023-01-16T02:54:23;2.60;86.56
70271;SHT31;57680;54.292;18.598;2023-01-16T02:57:08;2.57;86.43
70271;SHT31;57680;54.292;18.598;2023-01-16T02:59:35;2.50;86.73
70271;SHT31;57680;54.292;18.598;2023-01-16T03:02:01;2.47;86.87
70271;SHT31;57680;54.292;18.598;2023-01-16T03:12:52;2.51;86.90
70271;SHT31;57680;54.292;18.598;2023-01-16T03:15:39;2.44;87.10
70271;SHT31;57680;54.292;18.598;2023-01-16T03:26:14;2.47;87.20
70271;SHT31;57680;54.292;18.598;2023-01-16T03:31:31;2.45;87.25
70271;SHT31;57680;54.292;18.598;2023-01-16T03:34:13;2.48;87.30
70271;SHT31;57680;54.292;18.598;2023-01-16T03:36:52;2.44;87.27
70271;SHT31;57680;54.292;18.598;2023-01-16T03:39:23;2.42;87.20
70271;SHT31;57680;54.292;18.598;2023-01-16T03:41:53;2.42;87.36
70271;SHT31;57680;54.292;18.598;2023-01-16T03:44:23;2.44;87.40
70271;SHT31;57680;54.292;18.598;2023-01-16T03:46:50;2.42;87.34
70271;SHT31;57680;54.292;18.598;2023-01-16T03:49:38;2.37;87.47
70271;SHT31;57680;54.292;18.598;2023-01-16T03:52:07;2.40;87.52
70271;SHT31;57680;54.292;18.598;2023-01-16T03:59:31;2.24;87.90
70271;SHT31;57680;54.292;18.598;2023-01-16T04:02:01;2.19;88.09
70271;SHT31;57680;54.292;18.598;2023-01-16T04:05:08;2.19;88.45
70271;SHT31;57680;54.292;18.598;2023-01-16T04:10:11;2.11;88.52
70271;SHT31;57680;54.292;18.598;2023-01-16T04:12:45;2.17;88.80
70271;SHT31;57680;54.292;18.598;2023-01-16T04:15:12;2.20;88.74
70271;SHT31;57680;54.292;18.598;2023-01-16T04:17:39;2.23;88.58
70271;SHT31;57680;54.292;18.598;2023-01-16T04:20:06;2.19;88.55
70271;SHT31;57680;54.292;18.598;2023-01-16T04:22:33;2.17;88.47
70271;SHT31;57680;54.292;18.598;2023-01-16T04:25:00;2.09;88.50
70271;SHT31;57680;54.292;18.598;2023-01-16T04:27:26;2.06;89.01
70271;SHT31;57680;54.292;18.598;2023-01-16T04:29:52;2.07;89.09
70271;SHT31;57680;54.292;18.598;2023-01-16T04:32:18;2.05;88.81
70271;SHT31;57680;54.292;18.598;2023-01-16T04:34:43;2.11;89.08
70271;SHT31;57680;54.292;18.598;2023-01-16T04:37:12;2.19;88.66
70271;SHT31;57680;54.292;18.598;2023-01-16T04:39:37;2.14;88.84
70271;SHT31;57680;54.292;18.598;2023-01-16T04:42:03;2.17;88.85
70271;SHT31;57680;54.292;18.598;2023-01-16T04:44:29;2.19;88.89
70271;SHT31;57680;54.292;18.598;2023-01-16T04:46:55;2.24;88.58
70271;SHT31;57680;54.292;18.598;2023-01-16T04:49:20;2.23;88.45
70271;SHT31;57680;54.292;18.598;2023-01-16T04:51:46;2.20;88.50
70271;SHT31;57680;54.292;18.598;2023-01-16T04:54:17;2.19;88.52
70271;SHT31;57680;54.292;18.598;2023-01-16T04:56:42;2.09;88.66
70271;SHT31;57680;54.292;18.598;2023-01-16T04:59:09;2.03;88.82
70271;SHT31;57680;54.292;18.598;2023-01-16T05:01:35;1.98;89.08
70271;SHT31;57680;54.292;18.598;2023-01-16T05:04:03;1.93;89.17
70271;SHT31;57680;54.292;18.598;2023-01-16T05:06:28;1.92;89.47
70271;SHT31;57680;54.292;18.598;2023-01-16T05:08:54;1.82;89.51
70271;SHT31;57680;54.292;18.598;2023-01-16T05:11:19;1.76;89.57
70271;SHT31;57680;54.292;18.598;2023-01-16T05:13:45;1.73;90.08
70271;SHT31;57680;54.292;18.598;2023-01-16T05:16:10;1.68;89.92
70271;SHT31;57680;54.292;18.598;2023-01-16T05:18:36;1.61;90.19
70271;SHT31;57680;54.292;18.598;2023-01-16T05:21:02;1.63;90.33
70271;SHT31;57680;54.292;18.598;2023-01-16T05:23:29;1.61;90.56
70271;SHT31;57680;54.292;18.598;2023-01-16T05:25:54;1.62;90.64
70271;SHT31;57680;54.292;18.598;2023-01-16T05:28:20;1.58;90.47
70271;SHT31;57680;54.292;18.598;2023-01-16T05:30:49;1.59;90.52
70271;SHT31;57680;54.292;18.598;2023-01-16T05:33:14;1.54;90.56
70271;SHT31;57680;54.292;18.598;2023-01-16T05:35:40;1.54;91.13
70271;SHT31;57680;54.292;18.598;2023-01-16T05:38:05;1.62;90.95
70271;SHT31;57680;54.292;18.598;2023-01-16T05:40:30;1.62;90.72
70271;SHT31;57680;54.292;18.598;2023-01-16T05:42:56;1.71;91.01
70271;SHT31;57680;54.292;18.598;2023-01-16T05:45:22;1.79;90.84
70271;SHT31;57680;54.292;18.598;2023-01-16T05:47:47;1.79;90.64
70271;SHT31;57680;54.292;18.598;2023-01-16T05:50:13;1.82;90.64
70271;SHT31;57680;54.292;18.598;2023-01-16T05:52:38;1.82;90.48
70271;SHT31;57680;54.292;18.598;2023-01-16T05:55:04;1.87;90.48
70271;SHT31;57680;54.292;18.598;2023-01-16T05:57:30;1.83;90.46
70271;SHT31;57680;54.292;18.598;2023-01-16T05:59:55;1.86;90.54
70271;SHT31;57680;54.292;18.598;2023-01-16T06:02:21;1.87;90.66
70271;SHT31;57680;54.292;18.598;2023-01-16T06:04:47;1.87;90.53
70271;SHT31;57680;54.292;18.598;2023-01-16T06:07:13;1.85;90.57
70271;SHT31;57680;54.292;18.598;2023-01-16T06:09:39;1.90;90.79
70271;SHT31;57680;54.292;18.598;2023-01-16T06:12:05;1.87;90.50
70271;SHT31;57680;54.292;18.598;2023-01-16T06:14:33;1.85;90.56
70271;SHT31;57680;54.292;18.598;2023-01-16T06:16:58;1.81;90.53
70271;SHT31;57680;54.292;18.598;2023-01-16T06:19:24;1.78;90.67
70271;SHT31;57680;54.292;18.598;2023-01-16T06:21:49;1.73;90.92
70271;SHT31;57680;54.292;18.598;2023-01-16T06:24:15;1.68;90.98
70271;SHT31;57680;54.292;18.598;2023-01-16T06:26:40;1.59;90.99
70271;SHT31;57680;54.292;18.598;2023-01-16T06:29:06;1.52;90.98
70271;SHT31;57680;54.292;18.598;2023-01-16T06:31:31;1.41;91.20
70271;SHT31;57680;54.292;18.598;2023-01-16T06:33:56;1.31;91.30
70271;SHT31;57680;54.292;18.598;2023-01-16T06:36:22;1.23;91.43
70271;SHT31;57680;54.292;18.598;2023-01-16T06:38:47;1.16;91.75
70271;SHT31;57680;54.292;18.598;2023-01-16T06:41:13;1.08;92.08
70271;SHT31;57680;54.292;18.598;2023-01-16T06:43:38;1.04;92.23
70271;SHT31;57680;54.292;18.598;2023-01-16T06:46:04;0.97;92.15
70271;SHT31;57680;54.292;18.598;2023-01-16T06:48:29;0.91;92.40
70271;SHT31;57680;54.292;18.598;2023-01-16T06:50:57;0.89;92.84
70271;SHT31;57680;54.292;18.598;2023-01-16T06:53:24;0.93;93.69
70271;SHT31;57680;54.292;18.598;2023-01-16T06:55:49;0.91;93.55
70271;SHT31;57680;54.292;18.598;2023-01-16T06:58:15;0.91;93.12
70271;SHT31;57680;54.292;18.598;2023-01-16T07:00:40;0.80;92.95
70271;SHT31;57680;54.292;18.598;2023-01-16T07:03:06;0.73;92.97
70271;SHT31;57680;54.292;18.598;2023-01-16T07:05:32;0.73;93.40
70271;SHT31;57680;54.292;18.598;2023-01-16T07:07:58;0.70;93.53
70271;SHT31;57680;54.292;18.598;2023-01-16T07:10:24;0.72;93.97
70271;SHT31;57680;54.292;18.598;2023-01-16T07:12:50;0.80;94.20
70271;SHT31;57680;54.292;18.598;2023-01-16T07:15:17;0.86;94.07
70271;SHT31;57680;54.292;18.598;2023-01-16T07:18:02;0.86;93.65
70271;SHT31;57680;54.292;18.598;2023-01-16T07:20:54;0.94;93.98
70271;SHT31;57680;54.292;18.598;2023-01-16T07:23:44;0.99;93.49
70271;SHT31;57680;54.292;18.598;2023-01-16T07:26:11;1.04;93.39
70271;SHT31;57680;54.292;18.598;2023-01-16T07:28:38;1.14;93.69
70271;SHT31;57680;54.292;18.598;2023-01-16T07:31:05;1.17;93.16
70271;SHT31;57680;54.292;18.598;2023-01-16T07:33:32;1.21;92.91
70271;SHT31;57680;54.292;18.598;2023-01-16T07:35:58;1.21;92.62
70271;SHT31;57680;54.292;18.598;2023-01-16T07:38:23;1.20;92.68
70271;SHT31;57680;54.292;18.598;2023-01-16T07:40:49;1.17;92.50
70271;SHT31;57680;54.292;18.598;2023-01-16T07:43:14;1.14;92.45
70271;SHT31;57680;54.292;18.598;2023-01-16T07:45:40;1.16;92.46
70271;SHT31;57680;54.292;18.598;2023-01-16T07:48:05;1.14;92.55
70271;SHT31;57680;54.292;18.598;2023-01-16T07:50:31;1.16;92.65
70271;SHT31;57680;54.292;18.598;2023-01-16T07:52:57;1.19;92.68
70271;SHT31;57680;54.292;18.598;2023-01-16T07:55:23;1.20;92.52
70271;SHT31;57680;54.292;18.598;2023-01-16T07:57:48;1.23;92.56
70271;SHT31;57680;54.292;18.598;2023-01-16T08:00:14;1.24;92.57
70271;SHT31;57680;54.292;18.598;2023-01-16T08:02:40;1.26;92.40
70271;SHT31;57680;54.292;18.598;2023-01-16T08:05:06;1.23;92.16
70271;SHT31;57680;54.292;18.598;2023-01-16T08:07:32;1.23;92.43
70271;SHT31;57680;54.292;18.598;2023-01-16T08:09:57;1.20;92.24
70271;SHT31;57680;54.292;18.598;2023-01-16T08:12:23;1.21;92.50
70271;SHT31;57680;54.292;18.598;2023-01-16T08:14:48;1.23;92.45
70271;SHT31;57680;54.292;18.598;2023-01-16T08:17:14;1.26;92.69
70271;SHT31;57680;54.292;18.598;2023-01-16T08:19:40;1.24;92.39
70271;SHT31;57680;54.292;18.598;2023-01-16T08:22:06;1.28;92.90
70271;SHT31;57680;54.292;18.598;2023-01-16T08:24:32;1.32;92.44
70271;SHT31;57680;54.292;18.598;2023-01-16T08:26:57;1.35;92.41
70271;SHT31;57680;54.292;18.598;2023-01-16T08:29:23;1.35;92.44
70271;SHT31;57680;54.292;18.598;2023-01-16T08:31:48;1.35;92.27
70271;SHT31;57680;54.292;18.598;2023-01-16T08:34:14;1.38;92.29
70271;SHT31;57680;54.292;18.598;2023-01-16T08:36:40;1.42;92.32
70271;SHT31;57680;54.292;18.598;2023-01-16T08:39:06;1.41;92.26
70271;SHT31;57680;54.292;18.598;2023-01-16T08:41:33;1.44;91.96
70271;SHT31;57680;54.292;18.598;2023-01-16T08:44:16;1.48;92.14
70271;SHT31;57680;54.292;18.598;2023-01-16T08:47:11;1.52;91.95
70271;SHT31;57680;54.292;18.598;2023-01-16T08:49:56;1.66;91.93
70271;SHT31;57680;54.292;18.598;2023-01-16T08:52:40;1.79;91.57
70271;SHT31;57680;54.292;18.598;2023-01-16T08:55:06;1.93;91.17
70271;SHT31;57680;54.292;18.598;2023-01-16T08:57:32;2.09;90.98
70271;SHT31;57680;54.292;18.598;2023-01-16T08:59:58;2.16;90.31
70271;SHT31;57680;54.292;18.598;2023-01-16T09:02:25;2.24;90.23
70271;SHT31;57680;54.292;18.598;2023-01-16T09:04:52;2.41;89.69
70271;SHT31;57680;54.292;18.598;2023-01-16T09:07:19;2.54;89.22
70271;SHT31;57680;54.292;18.598;2023-01-16T09:09:45;2.72;89.06
70271;SHT31;57680;54.292;18.598;2023-01-16T09:12:11;2.89;88.64
70271;SHT31;57680;54.292;18.598;2023-01-16T09:14:55;3.12;87.95
70271;SHT31;57680;54.292;18.598;2023-01-16T09:17:22;3.42;88.66
70271;SHT31;57680;54.292;18.598;2023-01-16T09:19:48;3.51;86.49
70271;SHT31;57680;54.292;18.598;2023-01-16T09:22:13;3.59;86.25
70271;SHT31;57680;54.292;18.598;2023-01-16T09:24:39;3.70;86.05
70271;SHT31;57680;54.292;18.598;2023-01-16T09:27:04;3.71;85.33
70271;SHT31;57680;54.292;18.598;2023-01-16T09:29:30;3.77;85.98
70271;SHT31;57680;54.292;18.598;2023-01-16T09:31:56;3.84;85.90
70271;SHT31;57680;54.292;18.598;2023-01-16T09:34:21;3.90;85.32
70271;SHT31;57680;54.292;18.598;2023-01-16T09:36:47;3.85;84.96
70271;SHT31;57680;54.292;18.598;2023-01-16T09:39:12;3.88;85.42
70271;SHT31;57680;54.292;18.598;2023-01-16T09:41:53;3.81;85.04
70271;SHT31;57680;54.292;18.598;2023-01-16T09:44:42;3.78;85.39
70271;SHT31;57680;54.292;18.598;2023-01-16T09:47:09;3.85;85.58
70271;SHT31;57680;54.292;18.598;2023-01-16T09:49:58;3.70;84.99
70271;SHT31;57680;54.292;18.598;2023-01-16T09:52:31;3.75;85.54
70271;SHT31;57680;54.292;18.598;2023-01-16T09:55:26;3.73;85.59
70271;SHT31;57680;54.292;18.598;2023-01-16T09:58:17;3.71;85.62
70271;SHT31;57680;54.292;18.598;2023-01-16T10:01:00;3.66;85.45
70271;SHT31;57680;54.292;18.598;2023-01-16T10:03:26;3.61;85.69
70271;SHT31;57680;54.292;18.598;2023-01-16T10:06:00;3.54;86.12
70271;SHT31;57680;54.292;18.598;2023-01-16T10:11:22;3.50;85.67
70271;SHT31;57680;54.292;18.598;2023-01-16T10:20:26;3.51;86.04
70271;SHT31;57680;54.292;18.598;2023-01-16T10:25:44;3.63;85.95
70271;SHT31;57680;54.292;18.598;2023-01-16T10:31:16;3.78;85.74
70271;SHT31;57680;54.292;18.598;2023-01-16T10:33:57;4.01;85.76
70271;SHT31;57680;54.292;18.598;2023-01-16T10:36:30;4.31;85.35
70271;SHT31;57680;54.292;18.598;2023-01-16T10:38:58;4.39;84.41
70271;SHT31;57680;54.292;18.598;2023-01-16T10:41:28;4.52;84.23
70271;SHT31;57680;54.292;18.598;2023-01-16T10:47:00;4.60;82.89
70271;SHT31;57680;54.292;18.598;2023-01-16T10:49:45;4.77;83.30
70271;SHT31;57680;54.292;18.598;2023-01-16T10:52:10;4.74;81.87
70271;SHT31;57680;54.292;18.598;2023-01-16T10:54:37;4.72;82.13
70271;SHT31;57680;54.292;18.598;2023-01-16T10:57:10;4.66;82.50
70271;SHT31;57680;54.292;18.598;2023-01-16T10:59:39;4.63;82.61
70271;SHT31;57680;54.292;18.598;2023-01-16T11:02:19;4.66;82.82
70271;SHT31;57680;54.292;18.598;2023-01-16T11:04:48;4.66;82.62
70271;SHT31;57680;54.292;18.598;2023-01-16T11:07:19;4.60;82.48
70271;SHT31;57680;54.292;18.598;2023-01-16T11:09:45;4.56;82.24
70271;SHT31;57680;54.292;18.598;2023-01-16T11:12:26;4.42;82.52
70271;SHT31;57680;54.292;18.598;2023-01-16T11:15:29;4.33;82.46
70271;SHT31;57680;54.292;18.598;2023-01-16T11:18:23;4.26;82.79
70271;SHT31;57680;54.292;18.598;2023-01-16T11:20:54;4.25;82.64
70271;SHT31;57680;54.292;18.598;2023-01-16T11:23:22;4.31;82.67
70271;SHT31;57680;54.292;18.598;2023-01-16T11:25:49;4.43;83.24
70271;SHT31;57680;54.292;18.598;2023-01-16T11:28:27;4.48;82.31
70271;SHT31;57680;54.292;18.598;2023-01-16T11:31:03;4.42;81.67
70271;SHT31;57680;54.292;18.598;2023-01-16T11:33:38;4.39;82.18
70271;SHT31;57680;54.292;18.598;2023-01-16T11:36:05;4.38;82.33
70271;SHT31;57680;54.292;18.598;2023-01-16T11:38:35;4.42;82.63
70271;SHT31;57680;54.292;18.598;2023-01-16T11:41:03;4.36;82.57
70271;SHT31;57680;54.292;18.598;2023-01-16T11:43:30;4.26;82.33
70271;SHT31;57680;54.292;18.598;2023-01-16T11:48:59;4.13;83.08
70271;SHT31;57680;54.292;18.598;2023-01-16T11:51:32;4.19;83.35
70271;SHT31;57680;54.292;18.598;2023-01-16T11:53:59;4.09;82.81
70271;SHT31;57680;54.292;18.598;2023-01-16T11:56:43;4.02;83.01
70271;SHT31;57680;54.292;18.598;2023-01-16T12:04:38;3.92;83.38
70271;SHT31;57680;54.292;18.598;2023-01-16T12:07:17;3.91;83.79
70271;SHT31;57680;54.292;18.598;2023-01-16T12:12:34;3.99;84.57
70271;SHT31;57680;54.292;18.598;2023-01-16T12:15:35;4.12;84.34
70271;SHT31;57680;54.292;18.598;2023-01-16T12:21:16;4.13;83.71
70271;SHT31;57680;54.292;18.598;2023-01-16T12:23:51;4.09;83.76
70271;SHT31;57680;54.292;18.598;2023-01-16T12:26:30;4.05;83.95
70271;SHT31;57680;54.292;18.598;2023-01-16T12:29:22;4.01;83.99
70271;SHT31;57680;54.292;18.598;2023-01-16T12:38:16;3.97;84.34
70271;SHT31;57680;54.292;18.598;2023-01-16T12:46:44;3.91;84.48
70271;SHT31;57680;54.292;18.598;2023-01-16T12:49:29;3.90;84.60
70271;SHT31;57680;54.292;18.598;2023-01-16T12:52:31;3.85;84.67
70271;SHT31;57680;54.292;18.598;2023-01-16T13:01:01;3.88;85.10
70271;SHT31;57680;54.292;18.598;2023-01-16T13:03:32;3.91;85.46
70271;SHT31;57680;54.292;18.598;2023-01-16T13:06:04;3.91;85.23
70271;SHT31;57680;54.292;18.598;2023-01-16T13:08:38;3.94;85.33
70271;SHT31;57680;54.292;18.598;2023-01-16T13:11:28;3.95;85.06
70271;SHT31;57680;54.292;18.598;2023-01-16T13:14:22;3.97;85.13
70271;SHT31;57680;54.292;18.598;2023-01-16T13:17:02;4.03;85.05
70271;SHT31;57680;54.292;18.598;2023-01-16T13:19:31;4.08;84.70
70271;SHT31;57680;54.292;18.598;2023-01-16T13:22:02;4.12;84.64
70271;SHT31;57680;54.292;18.598;2023-01-16T13:24:43;4.15;84.50
70271;SHT31;57680;54.292;18.598;2023-01-16T13:27:15;4.21;84.34
70271;SHT31;57680;54.292;18.598;2023-01-16T13:29:48;4.22;84.32
70271;SHT31;57680;54.292;18.598;2023-01-16T13:32:36;4.21;84.08
70271;SHT31;57680;54.292;18.598;2023-01-16T13:38:10;4.25;84.24
70271;SHT31;57680;54.292;18.598;2023-01-16T13:46:51;4.22;84.36
70271;SHT31;57680;54.292;18.598;2023-01-16T13:49:21;4.15;84.61
70271;SHT31;57680;54.292;18.598;2023-01-16T13:51:49;4.01;84.88
70271;SHT31;57680;54.292;18.598;2023-01-16T13:54:21;3.92;84.97
70271;SHT31;57680;54.292;18.598;2023-01-16T13:57:00;3.85;85.44
70271;SHT31;57680;54.292;18.598;2023-01-16T13:59:38;3.74;85.96
70271;SHT31;57680;54.292;18.598;2023-01-16T14:10:42;3.53;87.04
70271;SHT31;57680;54.292;18.598;2023-01-16T14:13:32;3.49;87.19
70271;SHT31;57680;54.292;18.598;2023-01-16T14:16:30;3.39;87.42
70271;SHT31;57680;54.292;18.598;2023-01-16T14:21:40;3.19;88.02
70271;SHT31;57680;54.292;18.598;2023-01-16T14:24:18;3.11;88.56
70271;SHT31;57680;54.292;18.598;2023-01-16T14:26:56;3.11;89.06
70271;SHT31;57680;54.292;18.598;2023-01-16T14:30:01;3.06;88.95
70271;SHT31;57680;54.292;18.598;2023-01-16T14:32:31;3.05;88.60
70271;SHT31;57680;54.292;18.598;2023-01-16T14:35:14;3.06;88.74
70271;SHT31;57680;54.292;18.598;2023-01-16T14:37:51;2.98;88.58
70271;SHT31;57680;54.292;18.598;2023-01-16T14:40:20;2.93;88.94
70271;SHT31;57680;54.292;18.598;2023-01-16T14:42:52;2.87;89.01
70271;SHT31;57680;54.292;18.598;2023-01-16T14:45:39;2.80;89.19
70271;SHT31;57680;54.292;18.598;2023-01-16T14:56:47;2.55;89.78
70271;SHT31;57680;54.292;18.598;2023-01-16T14:59:17;2.48;90.10
70271;SHT31;57680;54.292;18.598;2023-01-16T15:01:50;2.42;90.42
70271;SHT31;57680;54.292;18.598;2023-01-16T15:04:41;2.37;90.28
70271;SHT31;57680;54.292;18.598;2023-01-16T15:07:16;2.33;90.57
70271;SHT31;57680;54.292;18.598;2023-01-16T15:09:43;2.24;90.76
70271;SHT31;57680;54.292;18.598;2023-01-16T15:12:14;2.21;91.14
70271;SHT31;57680;54.292;18.598;2023-01-16T15:14:57;2.23;91.35
70271;SHT31;57680;54.292;18.598;2023-01-16T15:17:33;2.23;91.67
70271;SHT31;57680;54.292;18.598;2023-01-16T15:20:27;2.23;91.58
70271;SHT31;57680;54.292;18.598;2023-01-16T15:23:31;2.21;91.64
70271;SHT31;57680;54.292;18.598;2023-01-16T15:26:06;2.17;91.44
70271;SHT31;57680;54.292;18.598;2023-01-16T15:31:16;2.11;92.17
70271;SHT31;57680;54.292;18.598;2023-01-16T15:33:43;2.07;91.84
70271;SHT31;57680;54.292;18.598;2023-01-16T15:38:59;2.02;92.35
70271;SHT31;57680;54.292;18.598;2023-01-16T15:41:27;1.98;92.00
70271;SHT31;57680;54.292;18.598;2023-01-16T15:44:15;1.95;92.01
70271;SHT31;57680;54.292;18.598;2023-01-16T15:50:03;1.81;92.04
70271;SHT31;57680;54.292;18.598;2023-01-16T15:52:31;1.71;92.23
70271;SHT31;57680;54.292;18.598;2023-01-16T15:54:58;1.68;92.53
70271;SHT31;57680;54.292;18.598;2023-01-16T15:57:24;1.61;92.51
70271;SHT31;57680;54.292;18.598;2023-01-16T15:59:52;1.58;92.94
70271;SHT31;57680;54.292;18.598;2023-01-16T16:02:21;1.52;92.85
70271;SHT31;57680;54.292;18.598;2023-01-16T16:04:50;1.48;92.93
70271;SHT31;57680;54.292;18.598;2023-01-16T16:07:17;1.45;93.23
70271;SHT31;57680;54.292;18.598;2023-01-16T16:09:45;1.42;93.29
70271;SHT31;57680;54.292;18.598;2023-01-16T16:12:12;1.41;93.69
70271;SHT31;57680;54.292;18.598;2023-01-16T16:14:37;1.37;93.49
70271;SHT31;57680;54.292;18.598;2023-01-16T16:17:23;1.31;93.37
70271;SHT31;57680;54.292;18.598;2023-01-16T16:20:28;1.21;93.68
70271;SHT31;57680;54.292;18.598;2023-01-16T16:23:01;1.19;93.91
70271;SHT31;57680;54.292;18.598;2023-01-16T16:30:43;1.05;94.19
70271;SHT31;57680;54.292;18.598;2023-01-16T16:33:16;1.01;94.32
70271;SHT31;57680;54.292;18.598;2023-01-16T16:35:46;0.99;94.53
70271;SHT31;57680;54.292;18.598;2023-01-16T16:38:25;0.96;94.63
70271;SHT31;57680;54.292;18.598;2023-01-16T16:51:39;0.81;94.90
70271;SHT31;57680;54.292;18.598;2023-01-16T16:54:09;0.76;94.82
70271;SHT31;57680;54.292;18.598;2023-01-16T16:56:43;0.69;94.91
70271;SHT31;57680;54.292;18.598;2023-01-16T16:59:17;0.68;95.00
70271;SHT31;57680;54.292;18.598;2023-01-16T17:01:49;0.65;95.40
70271;SHT31;57680;54.292;18.598;2023-01-16T17:04:15;0.65;95.33
70271;SHT31;57680;54.292;18.598;2023-01-16T17:06:43;0.68;96.03
70271;SHT31;57680;54.292;18.598;2023-01-16T17:09:13;0.68;95.68
70271;SHT31;57680;54.292;18.598;2023-01-16T17:11:40;0.66;95.65
70271;SHT31;57680;54.292;18.598;2023-01-16T17:14:06;0.65;95.49
70271;SHT31;57680;54.292;18.598;2023-01-16T17:16:32;0.62;95.55
70271;SHT31;57680;54.292;18.598;2023-01-16T17:19:01;0.58;95.55
70271;SHT31;57680;54.292;18.598;2023-01-16T17:21:27;0.56;95.76
70271;SHT31;57680;54.292;18.598;2023-01-16T17:23:53;0.58;95.81
70271;SHT31;57680;54.292;18.598;2023-01-16T17:26:18;0.58;95.80
70271;SHT31;57680;54.292;18.598;2023-01-16T17:28:43;0.55;95.56
70271;SHT31;57680;54.292;18.598;2023-01-16T17:31:17;0.50;95.59
70271;SHT31;57680;54.292;18.598;2023-01-16T17:33:44;0.55;96.03
70271;SHT31;57680;54.292;18.598;2023-01-16T17:36:21;0.49;95.55
70271;SHT31;57680;54.292;18.598;2023-01-16T17:38:46;0.48;95.69
70271;SHT31;57680;54.292;18.598;2023-01-16T17:41:16;0.45;95.87
70271;SHT31;57680;54.292;18.598;2023-01-16T17:44:02;0.44;95.86
70271;SHT31;57680;54.292;18.598;2023-01-16T17:46:46;0.44;95.81
70271;SHT31;57680;54.292;18.598;2023-01-16T17:49:12;0.39;95.68
70271;SHT31;57680;54.292;18.598;2023-01-16T17:51:37;0.39;95.75
70271;SHT31;57680;54.292;18.598;2023-01-16T17:54:03;0.31;95.69
70271;SHT31;57680;54.292;18.598;2023-01-16T17:56:28;0.25;95.71
70271;SHT31;57680;54.292;18.598;2023-01-16T17:58:54;0.21;95.72
70271;SHT31;57680;54.292;18.598;2023-01-16T18:01:30;0.17;95.68
70271;SHT31;57680;54.292;18.598;2023-01-16T18:03:57;0.14;95.80
70271;SHT31;57680;54.292;18.598;2023-01-16T18:06:23;0.10;95.85
70271;SHT31;57680;54.292;18.598;2023-01-16T18:08:49;0.04;95.95
70271;SHT31;57680;54.292;18.598;2023-01-16T18:11:15;0.01;95.90
70271;SHT31;57680;54.292;18.598;2023-01-16T18:13:59;-0.03;96.12
70271;SHT31;57680;54.292;18.598;2023-01-16T18:16:43;-0.05;96.23
70271;SHT31;57680;54.292;18.598;2023-01-16T18:19:27;-0.09;96.33
70271;SHT31;57680;54.292;18.598;2023-01-16T18:21:53;-0.05;96.67
70271;SHT31;57680;54.292;18.598;2023-01-16T18:24:25;0.02;96.98
70271;SHT31;57680;54.292;18.598;2023-01-16T18:26:51;0.02;96.78
70271;SHT31;57680;54.292;18.598;2023-01-16T18:29:16;0.01;96.75